Time;durP1;ratioP1;P1;durP2;ratioP2;P2;SDS_P1;SDS_P2;PMS_P1;PMS_P2;Temp;Humidity;BMP_temperature;BMP_pressure;BME280_temperature;BME280_humidity;BME280_pressure;Samples;Min_cycle;Max_cycle;Signal;HPM_P1;HPM_P2
2023/08/12 00:00:49;;;;;;;0.00;0.00;;;;;;;20.11;55.60;100089.03;7359372;19;20578;-56
2023/08/12 00:03:15;;;;;;;0.10;0.10;;;;;;;20.10;55.84;100085.53;7358613;19;20018;-57
2023/08/12 00:05:41;;;;;;;0.03;0.03;;;;;;;20.06;55.54;100069.94;7359324;19;20011;-55
2023/08/12 00:08:06;;;;;;;0.10;0.10;;;;;;;20.09;55.75;100083.84;7357453;19;20024;-56
2023/08/12 00:10:32;;;;;;;0.00;0.00;;;;;;;20.10;55.79;100077.56;7358258;19;20074;-57
2023/08/12 00:12:57;;;;;;;0.00;0.00;;;;;;;20.11;55.66;100078.41;7358853;19;20010;-56
2023/08/12 00:15:23;;;;;;;0.10;0.10;;;;;;;20.10;55.67;100074.06;7358700;19;20023;-57
2023/08/12 00:17:48;;;;;;;0.00;0.00;;;;;;;20.10;55.87;100074.06;7359987;19;20007;-56
2023/08/12 00:20:13;;;;;;;0.08;0.08;;;;;;;20.07;56.16;100061.03;7348874;19;20003;-56
2023/08/12 00:22:39;;;;;;;0.05;0.05;;;;;;;20.00;56.10;100054.50;7355530;19;20106;-56
2023/08/12 00:25:06;;;;;;;0.00;0.00;;;;;;;20.06;55.71;100059.34;7357497;19;20038;-57
2023/08/12 00:27:31;;;;;;;0.10;0.10;;;;;;;20.06;56.26;100062.00;7358628;19;20019;-57
2023/08/12 00:29:57;;;;;;;0.00;0.00;;;;;;;20.08;56.11;100060.09;7356091;19;20028;-57
2023/08/12 00:32:22;;;;;;;0.00;0.00;;;;;;;20.07;55.96;100045.13;7361340;19;20482;-56
2023/08/12 00:34:48;;;;;;;0.00;0.00;;;;;;;20.07;56.36;100042.47;7355168;19;20010;-57
2023/08/12 00:37:13;;;;;;;0.00;0.00;;;;;;;20.08;55.99;100036.25;7360468;19;20746;-57
2023/08/12 00:39:39;;;;;;;0.00;0.00;;;;;;;20.01;56.17;100029.69;7352762;19;20021;-55
2023/08/12 00:42:04;;;;;;;0.08;0.08;;;;;;;20.08;56.00;100036.25;7359057;19;20034;-56
2023/08/12 00:44:29;;;;;;;0.10;0.10;;;;;;;20.07;56.36;100034.53;7358541;19;20404;-57
2023/08/12 00:46:55;;;;;;;0.00;0.00;;;;;;;20.07;56.33;100034.53;7358006;19;20074;-56
2023/08/12 00:49:22;;;;;;;0.10;0.10;;;;;;;20.07;56.70;100029.22;7356972;19;20015;-55
2023/08/12 00:51:52;;;;;;;0.05;0.05;;;;;;;20.08;56.14;100028.28;7356628;19;20046;-57
2023/08/12 00:54:20;;;;;;;0.00;0.00;;;;;;;20.06;56.64;100025.72;7356706;19;20014;-55
2023/08/12 00:56:46;;;;;;;0.00;0.00;;;;;;;20.05;56.14;100025.84;7353093;19;20030;-55
2023/08/12 00:59:12;;;;;;;0.10;0.10;;;;;;;20.04;56.63;100040.91;7357753;19;20018;-56
2023/08/12 01:01:41;;;;;;;0.10;0.10;;;;;;;20.04;56.82;100024.16;7353063;19;20634;-57
2023/08/12 01:04:07;;;;;;;0.08;0.08;;;;;;;20.02;56.70;100015.47;7338062;19;20483;-53
2023/08/12 01:06:33;;;;;;;0.00;0.00;;;;;;;20.00;56.59;100012.09;7355570;19;20003;-55
2023/08/12 01:08:59;;;;;;;0.00;0.00;;;;;;;20.01;56.79;100008.47;7357661;19;20030;-56
2023/08/12 01:11:31;;;;;;;0.10;0.10;;;;;;;20.00;56.88;100020.03;7359185;19;20441;-57
2023/08/12 01:14:17;;;;;;;0.00;0.00;;;;;;;20.03;56.20;100006.56;7356230;19;20863;-56
2023/08/12 01:16:47;;;;;;;0.10;0.10;;;;;;;20.01;56.17;100003.19;7357147;19;20880;-57
2023/08/12 01:19:40;;;;;;;0.00;0.00;;;;;;;20.03;56.12;99990.69;7352407;19;20016;-56
2023/08/12 01:22:09;;;;;;;0.10;0.10;;;;;;;20.00;57.08;99990.88;7255480;19;2004903;-57
2023/08/12 01:24:44;;;;;;;0.00;0.00;;;;;;;20.01;56.44;99993.41;7356866;19;20007;-56
2023/08/12 01:27:11;;;;;;;0.00;0.00;;;;;;;19.99;56.85;99994.50;7355406;19;20954;-57
2023/08/12 01:29:41;;;;;;;0.00;0.00;;;;;;;19.99;56.70;99991.84;7354181;19;20057;-57
2023/08/12 01:32:25;;;;;;;0.10;0.10;;;;;;;20.00;56.85;99988.25;7357012;19;20035;-56
2023/08/12 01:35:28;;;;;;;0.10;0.10;;;;;;;20.02;55.91;99983.66;7357454;19;20101;-57
2023/08/12 01:37:57;;;;;;;0.00;0.00;;;;;;;19.99;57.29;99970.66;7255146;19;2004208;-56
2023/08/12 01:40:24;;;;;;;0.10;0.10;;;;;;;19.98;57.51;99975.09;7355159;19;20093;-55
2023/08/12 01:42:50;;;;;;;0.10;0.10;;;;;;;19.98;56.91;99977.75;7356991;19;20070;-57
2023/08/12 01:45:18;;;;;;;0.00;0.00;;;;;;;20.00;57.41;99975.00;7351357;19;20034;-57
2023/08/12 01:47:43;;;;;;;;;;;;;;;20.02;55.71;99971.28;7360309;19;20014;-57
2023/08/12 01:50:09;;;;;;;0.08;0.08;;;;;;;19.99;57.56;99973.31;7354709;19;20834;-57
2023/08/12 01:52:35;;;;;;;0.10;0.10;;;;;;;19.96;57.70;99969.91;7355683;19;20594;-57
2023/08/12 01:55:00;;;;;;;0.00;0.00;;;;;;;19.95;57.43;99962.06;7357895;19;20003;-55
2023/08/12 01:57:26;;;;;;;0.10;0.10;;;;;;;19.96;57.96;99974.34;7353905;19;20458;-56
2023/08/12 01:59:51;;;;;;;0.00;0.00;;;;;;;19.95;57.80;99960.25;7349312;19;20018;-57
2023/08/12 02:02:17;;;;;;;0.00;0.00;;;;;;;19.94;58.08;99955.09;7355990;19;20014;-56
2023/08/12 02:04:43;;;;;;;0.10;0.10;;;;;;;19.95;58.25;99957.63;7344828;19;20594;-55
2023/08/12 02:07:09;;;;;;;0.10;0.10;;;;;;;19.98;58.20;99955.72;7355218;19;20021;-57
2023/08/12 02:09:34;;;;;;;0.10;0.10;;;;;;;20.00;58.24;99953.78;7351420;19;20015;-57
2023/08/12 02:12:00;;;;;;;0.03;0.03;;;;;;;20.00;58.21;99948.47;7353936;19;20021;-57
2023/08/12 02:14:25;;;;;;;0.10;0.10;;;;;;;19.93;57.95;99926.91;7353137;19;20013;-57
2023/08/12 02:16:51;;;;;;;0.10;0.10;;;;;;;20.00;58.32;99929.94;7352895;19;20014;-57
2023/08/12 02:19:16;;;;;;;0.00;0.00;;;;;;;19.99;58.34;99931.75;7349420;19;20392;-56
2023/08/12 02:21:42;;;;;;;0.10;0.10;;;;;;;20.01;58.34;99923.66;7354628;19;20016;-56
2023/08/12 02:24:08;;;;;;;0.10;0.10;;;;;;;20.01;58.87;99931.63;7351201;19;20009;-56
2023/08/12 02:26:34;;;;;;;0.10;0.10;;;;;;;20.01;58.92;99923.66;7349286;19;20031;-57
2023/08/12 02:28:59;;;;;;;0.10;0.10;;;;;;;19.99;58.69;99925.59;7351516;19;20025;-56
2023/08/12 02:31:25;;;;;;;0.00;0.00;;;;;;;19.90;58.78;99908.56;7354219;19;20022;-57
2023/08/12 02:33:50;;;;;;;0.00;0.00;;;;;;;19.98;58.64;99924.75;7351756;19;20002;-57
2023/08/12 02:36:16;;;;;;;0.00;0.00;;;;;;;19.91;58.74;99908.44;7354235;19;20010;-57
2023/08/12 02:38:41;;;;;;;0.00;0.00;;;;;;;19.90;58.79;99912.06;7353396;19;20016;-57
2023/08/12 02:41:07;;;;;;;0.10;0.10;;;;;;;19.98;58.64;99913.31;7344985;19;20061;-57
2023/08/12 02:43:32;;;;;;;0.00;0.00;;;;;;;19.95;58.81;99912.56;7351688;19;20967;-55
2023/08/12 02:45:57;;;;;;;0.10;0.10;;;;;;;19.99;59.19;99915.00;7348737;19;20010;-56
2023/08/12 02:48:23;;;;;;;0.10;0.10;;;;;;;20.00;59.08;99911.38;7353344;19;20082;-55
2023/08/12 02:50:48;;;;;;;0.00;0.00;;;;;;;19.99;59.14;99904.41;7347250;19;20024;-57
2023/08/12 02:53:15;;;;;;;0.10;0.10;;;;;;;20.01;59.21;99903.31;7352541;19;20056;-55
2023/08/12 02:55:41;;;;;;;0.10;0.10;;;;;;;20.02;59.39;99897.06;7353919;19;20044;-56
2023/08/12 02:58:06;;;;;;;0.10;0.10;;;;;;;20.02;59.17;99898.84;7352559;19;20740;-56
2023/08/12 03:00:31;;;;;;;0.10;0.10;;;;;;;20.01;59.38;99890.06;7351018;19;20033;-56
2023/08/12 03:02:57;;;;;;;0.00;0.00;;;;;;;20.01;59.57;99875.97;7328474;19;20389;-57
2023/08/12 03:05:23;;;;;;;0.10;0.10;;;;;;;19.92;59.12;99866.88;7352482;19;20078;-55
2023/08/12 03:07:49;;;;;;;0.10;0.10;;;;;;;20.02;59.74;99890.91;7351981;19;20025;-57
2023/08/12 03:10:14;;;;;;;0.10;0.10;;;;;;;20.01;60.01;99870.66;7349584;19;20653;-56
2023/08/12 03:12:40;;;;;;;0.10;0.10;;;;;;;20.03;60.16;99868.75;7349498;19;20021;-57
2023/08/12 03:15:07;;;;;;;0.10;0.10;;;;;;;20.00;59.94;99863.69;7351063;19;20015;-57
2023/08/12 03:17:32;;;;;;;0.00;0.00;;;;;;;20.02;59.91;99856.44;7354060;19;20028;-55
2023/08/12 03:20:01;;;;;;;0.10;0.10;;;;;;;20.02;59.61;99872.34;7328992;19;20469;-56
2023/08/12 03:22:29;;;;;;;0.00;0.00;;;;;;;20.04;59.27;99859.84;7331940;19;20006;-55
2023/08/12 03:24:55;;;;;;;0.10;0.10;;;;;;;20.02;59.75;99857.31;7351493;19;20010;-57
2023/08/12 03:27:20;;;;;;;0.08;0.08;;;;;;;19.90;60.09;99852.91;7359943;19;20883;-56
2023/08/12 03:29:46;;;;;;;0.00;0.00;;;;;;;20.02;60.15;99864.41;7355864;19;20466;-55
2023/08/12 03:32:12;;;;;;;0.00;0.00;;;;;;;19.98;61.15;99855.00;7359466;19;20591;-55
2023/08/12 03:34:37;;;;;;;0.00;0.00;;;;;;;19.96;60.28;99848.00;7359792;19;20003;-55
2023/08/12 03:37:02;;;;;;;0.10;0.10;;;;;;;19.95;60.55;99861.38;7356618;19;20435;-56
2023/08/12 03:39:28;;;;;;;0.10;0.10;;;;;;;19.93;61.00;99848.25;7358208;19;20037;-56
2023/08/12 03:41:53;;;;;;;0.00;0.00;;;;;;;19.91;61.08;99850.16;7358048;19;20002;-57
2023/08/12 03:44:19;;;;;;;0.10;0.10;;;;;;;19.88;61.03;99847.75;7358750;19;20566;-57
2023/08/12 03:46:44;;;;;;;0.10;0.10;;;;;;;19.86;61.69;99852.28;7357981;19;20014;-56
2023/08/12 03:49:10;;;;;;;0.10;0.10;;;;;;;19.85;61.52;99847.97;7359293;19;20098;-57
2023/08/12 03:51:35;;;;;;;0.00;0.00;;;;;;;19.82;61.47;99850.88;7358847;19;20894;-57
2023/08/12 03:54:01;;;;;;;0.10;0.10;;;;;;;19.79;61.75;99848.44;7355585;19;20014;-57
2023/08/12 03:56:26;;;;;;;0.00;0.00;;;;;;;19.77;62.15;99836.25;7358221;19;20023;-57
2023/08/12 03:58:52;;;;;;;0.10;0.10;;;;;;;19.75;62.13;99832.88;7359639;19;20652;-57
2023/08/12 04:01:17;;;;;;;0.00;0.00;;;;;;;19.72;61.94;99833.97;7360678;19;20041;-54
2023/08/12 04:03:43;;;;;;;0.10;0.10;;;;;;;19.70;62.01;99835.88;7357649;19;20054;-55
2023/08/12 04:06:08;;;;;;;0.10;0.10;;;;;;;19.69;62.22;99839.47;7360544;19;20021;-56
2023/08/12 04:08:34;;;;;;;0.00;0.00;;;;;;;19.69;62.12;99839.47;7357093;19;20762;-57
2023/08/12 04:10:59;;;;;;;0.00;0.00;;;;;;;19.69;61.78;99829.72;7357289;19;20098;-56
2023/08/12 04:13:25;;;;;;;0.10;0.10;;;;;;;19.68;61.74;99832.50;7357719;19;20103;-57
2023/08/12 04:15:53;;;;;;;0.10;0.10;;;;;;;19.70;61.27;99819.97;7356075;19;20010;-58
2023/08/12 04:18:19;;;;;;;0.00;0.00;;;;;;;19.63;61.91;99818.75;7358096;19;20596;-56
2023/08/12 04:20:48;;;;;;;0.00;0.00;;;;;;;19.71;61.60;99816.34;7358037;19;20350;-57
2023/08/12 04:23:14;;;;;;;0.00;0.00;;;;;;;19.59;62.52;99804.88;7356182;19;20819;-57
2023/08/12 04:25:39;;;;;;;0.10;0.10;;;;;;;19.67;61.78;99817.56;7358526;19;22506;-57
2023/08/12 04:28:05;;;;;;;0.00;0.00;;;;;;;19.54;62.40;99795.56;7355610;19;20014;-56
2023/08/12 04:30:30;;;;;;;0.10;0.10;;;;;;;19.66;61.88;99813.19;7356155;19;20011;-57
2023/08/12 04:32:56;;;;;;;0.10;0.10;;;;;;;19.65;62.51;99816.81;7358162;19;20596;-54
2023/08/12 04:35:21;;;;;;;0.00;0.00;;;;;;;19.64;62.41;99809.84;7358499;19;20014;-56
2023/08/12 04:37:47;;;;;;;0.08;0.08;;;;;;;19.64;62.02;99812.50;7356138;19;20007;-57
2023/08/12 04:40:12;;;;;;;0.00;0.00;;;;;;;19.64;62.30;99809.84;7359137;19;20025;-58
2023/08/12 04:42:37;;;;;;;0.10;0.10;;;;;;;19.63;62.16;99813.44;7350880;19;20020;-57
2023/08/12 04:45:03;;;;;;;0.00;0.00;;;;;;;19.64;62.23;99815.13;7358508;19;20023;-57
2023/08/12 04:47:29;;;;;;;0.10;0.10;;;;;;;19.64;62.03;99815.13;7355720;19;20018;-56
2023/08/12 04:49:54;;;;;;;0.03;0.03;;;;;;;19.62;62.35;99811.78;7356976;19;20434;-57
2023/08/12 04:52:20;;;;;;;0.00;0.00;;;;;;;19.63;62.33;99813.44;7353592;19;20010;-57
2023/08/12 04:54:46;;;;;;;0.10;0.10;;;;;;;19.63;62.11;99813.44;7357981;19;20046;-57
2023/08/12 04:57:11;;;;;;;0.00;0.00;;;;;;;19.64;62.41;99809.84;7354587;19;20013;-57
2023/08/12 04:59:37;;;;;;;0.00;0.00;;;;;;;19.63;62.30;99819.59;7357794;19;20111;-56
2023/08/12 05:02:03;;;;;;;0.10;0.10;;;;;;;19.62;62.21;99815.25;7353375;19;20763;-55
2023/08/12 05:04:28;;;;;;;0.10;0.10;;;;;;;19.62;62.02;99812.59;7358541;19;20052;-57
2023/08/12 05:06:53;;;;;;;0.00;0.00;;;;;;;19.59;62.26;99802.22;7357188;19;20101;-57
2023/08/12 05:09:19;;;;;;;0.05;0.05;;;;;;;19.61;62.08;99810.06;7357613;19;20075;-56
2023/08/12 05:11:44;;;;;;;0.00;0.00;;;;;;;19.52;61.98;99795.69;7354305;19;21845;-58
2023/08/12 05:14:10;;;;;;;0.00;0.00;;;;;;;19.62;62.09;99815.25;7356007;19;20014;-56
2023/08/12 05:16:35;;;;;;;0.00;0.00;;;;;;;19.63;62.59;99805.50;7349990;19;20010;-55
2023/08/12 05:19:00;;;;;;;0.00;0.00;;;;;;;19.54;61.85;99806.16;7357222;19;20014;-58
2023/08/12 05:21:26;;;;;;;0.10;0.10;;;;;;;19.49;62.47;99800.34;7353037;19;20018;-57
2023/08/12 05:23:52;;;;;;;0.00;0.00;;;;;;;19.53;62.74;99807.97;7357854;19;20713;-57
2023/08/12 05:26:17;;;;;;;0.10;0.10;;;;;;;19.55;62.12;99810.47;7353201;19;20016;-57
2023/08/12 05:28:43;;;;;;;0.10;0.10;;;;;;;19.54;62.06;99808.81;7357105;19;20014;-57
2023/08/12 05:31:08;;;;;;;0.10;0.10;;;;;;;19.52;62.11;99814.22;7353051;19;20015;-57
2023/08/12 05:33:33;;;;;;;0.08;0.08;;;;;;;19.52;62.22;99810.72;7354590;19;20018;-57
2023/08/12 05:35:59;;;;;;;0.00;0.00;;;;;;;19.47;61.87;99811.06;7357458;19;20554;-56
2023/08/12 05:38:24;;;;;;;0.00;0.00;;;;;;;19.50;62.35;99807.34;7354889;19;20021;-57
2023/08/12 05:40:49;;;;;;;0.00;0.00;;;;;;;19.50;61.94;99818.75;7355364;19;20015;-56
2023/08/12 05:43:15;;;;;;;0.03;0.03;;;;;;;19.50;62.16;99808.16;7354623;19;20014;-56
2023/08/12 05:45:40;;;;;;;0.10;0.10;;;;;;;19.50;62.49;99820.56;7354357;19;20021;-57
2023/08/12 05:48:06;;;;;;;0.10;0.10;;;;;;;19.50;62.46;99817.91;7356400;19;20052;-56
2023/08/12 05:50:31;;;;;;;0.10;0.10;;;;;;;19.49;62.51;99821.53;7351554;19;20685;-56
2023/08/12 05:52:57;;;;;;;0.00;0.00;;;;;;;19.48;62.83;99818.03;7354069;19;20023;-57
2023/08/12 05:55:22;;;;;;;0.10;0.10;;;;;;;19.49;62.49;99816.25;7354405;19;20014;-58
2023/08/12 05:57:47;;;;;;;0.10;0.10;;;;;;;19.50;62.57;99833.81;7352574;19;20010;-56
2023/08/12 06:00:13;;;;;;;0.10;0.10;;;;;;;19.51;62.72;99819.59;7354548;19;20014;-57
2023/08/12 06:02:38;;;;;;;0.00;0.00;;;;;;;19.54;62.16;99829.97;7352512;19;20018;-57
2023/08/12 06:05:04;;;;;;;0.03;0.03;;;;;;;19.44;62.43;99809.47;7354837;19;20006;-56
2023/08/12 06:07:30;;;;;;;0.00;0.00;;;;;;;19.52;62.39;99816.88;7355047;19;20676;-57
2023/08/12 06:09:55;;;;;;;0.00;0.00;;;;;;;19.55;62.51;99815.78;7352415;19;20019;-56
2023/08/12 06:12:20;;;;;;;0.10;0.10;;;;;;;19.56;62.16;99828.06;7353203;19;20026;-57
2023/08/12 06:14:46;;;;;;;0.00;0.00;;;;;;;19.57;62.42;99830.63;7351326;19;20017;-57
2023/08/12 06:17:11;;;;;;;0.08;0.08;;;;;;;19.61;62.62;99831.25;7354238;19;20323;-55
2023/08/12 06:19:36;;;;;;;0.10;0.10;;;;;;;19.62;61.89;99827.66;7352588;19;20923;-56
2023/08/12 06:22:03;;;;;;;0.03;0.03;;;;;;;19.63;62.68;99832.84;7354103;19;20105;-57
2023/08/12 06:24:28;;;;;;;0.00;0.00;;;;;;;19.64;62.74;99831.03;7351556;19;20097;-56
2023/08/12 06:26:54;;;;;;;0.05;0.05;;;;;;;19.68;62.67;99827.19;7352488;19;20094;-57
2023/08/12 06:29:19;;;;;;;0.00;0.00;;;;;;;19.69;62.49;99829.72;7344683;19;20030;-56
2023/08/12 06:31:44;;;;;;;0.00;0.00;;;;;;;19.71;62.55;99826.94;7353802;19;20036;-55
2023/08/12 06:34:10;;;;;;;0.10;0.10;;;;;;;19.74;62.03;99832.03;7351967;19;20050;-56
2023/08/12 06:36:35;;;;;;;0.10;0.10;;;;;;;19.71;62.19;99819.00;7354082;19;20080;-56
2023/08/12 06:39:00;;;;;;;0.00;0.00;;;;;;;19.75;62.38;99823.13;7350944;19;20038;-56
2023/08/12 06:41:26;;;;;;;0.00;0.00;;;;;;;19.77;62.33;99825.66;7353934;19;20029;-57
2023/08/12 06:43:51;;;;;;;0.00;0.00;;;;;;;19.77;62.37;99818.56;7348958;19;20010;-57
2023/08/12 06:46:17;;;;;;;0.10;0.10;;;;;;;19.79;62.37;99819.28;7353671;19;20018;-57
2023/08/12 06:48:42;;;;;;;0.08;0.08;;;;;;;19.78;62.25;99814.97;7351911;19;20110;-55
2023/08/12 06:51:10;;;;;;;0.00;0.00;;;;;;;19.78;62.08;99816.75;7351725;19;20016;-57
2023/08/12 06:53:37;;;;;;;0.00;0.00;;;;;;;19.78;62.20;99828.19;7351159;19;20022;-56
2023/08/12 06:56:02;;;;;;;0.10;0.10;;;;;;;19.79;62.58;99835.19;7348174;19;20014;-57
2023/08/12 06:58:28;;;;;;;0.10;0.10;;;;;;;19.82;61.88;99827.00;7351733;19;20025;-57
2023/08/12 07:00:53;;;;;;;0.08;0.08;;;;;;;19.70;62.82;99820.81;7357679;19;20010;-56
2023/08/12 07:03:19;;;;;;;0.10;0.10;;;;;;;19.81;62.40;99832.41;7359755;19;20034;-57
2023/08/12 07:05:44;;;;;;;0.10;0.10;;;;;;;19.85;62.65;99840.00;7349963;19;20839;-56
2023/08/12 07:08:10;;;;;;;0.10;0.10;;;;;;;19.86;62.58;99841.69;7359810;19;20052;-55
2023/08/12 07:10:40;;;;;;;0.00;0.00;;;;;;;19.90;62.21;99840.50;7356932;19;20003;-55
2023/08/12 07:13:05;;;;;;;0.10;0.10;;;;;;;19.90;62.14;99843.16;7361798;19;20014;-57
2023/08/12 07:15:31;;;;;;;0.10;0.10;;;;;;;19.85;62.83;99837.38;7359843;19;20597;-55
2023/08/12 07:17:57;;;;;;;0.00;0.00;;;;;;;19.92;62.85;99837.75;7357914;19;20022;-57
2023/08/12 07:20:24;;;;;;;0.00;0.00;;;;;;;19.96;62.83;99848.00;7356674;19;20029;-57
2023/08/12 07:22:49;;;;;;;0.10;0.10;;;;;;;20.02;62.59;99827.28;7361516;19;20014;-58
2023/08/12 07:25:14;;;;;;;0.00;0.00;;;;;;;20.08;62.86;99840.09;7355695;19;20769;-55
2023/08/12 07:27:40;;;;;;;0.00;0.00;;;;;;;20.17;62.69;99842.03;7359560;19;20010;-57
2023/08/12 07:30:07;;;;;;;0.10;0.10;;;;;;;20.21;62.45;99836.38;7358217;19;20901;-55
2023/08/12 07:32:33;;;;;;;0.10;0.10;;;;;;;20.33;61.85;99845.22;7360070;19;20564;-57
2023/08/12 07:34:58;;;;;;;0.03;0.03;;;;;;;20.41;61.89;99847.28;7358763;19;20014;-57
2023/08/12 07:37:23;;;;;;;0.10;0.10;;;;;;;20.46;61.69;99839.81;7359116;19;20017;-57
2023/08/12 07:39:49;;;;;;;0.00;0.00;;;;;;;20.53;61.79;99850.81;7359917;19;20035;-57
2023/08/12 07:42:14;;;;;;;0.10;0.10;;;;;;;20.57;61.21;99852.25;7356830;19;20018;-57
2023/08/12 07:44:40;;;;;;;0.08;0.08;;;;;;;20.64;61.12;99858.78;7356066;19;20019;-57
2023/08/12 07:47:05;;;;;;;0.10;0.10;;;;;;;20.68;60.69;99865.53;7360189;19;20017;-57
2023/08/12 07:49:30;;;;;;;0.00;0.00;;;;;;;20.69;61.92;99862.78;7355989;19;20022;-55
2023/08/12 07:51:56;;;;;;;0.10;0.10;;;;;;;20.75;61.63;99869.41;7358008;19;20029;-55
2023/08/12 07:54:21;;;;;;;0.03;0.03;;;;;;;20.75;61.44;99863.25;7357693;19;20015;-55
2023/08/12 07:56:47;;;;;;;0.10;0.10;;;;;;;20.77;61.42;99859.50;7358138;19;20477;-57
2023/08/12 07:59:12;;;;;;;0.03;0.03;;;;;;;20.76;61.27;99871.09;7357392;19;20022;-57
2023/08/12 08:01:37;;;;;;;0.10;0.10;;;;;;;20.79;61.76;99862.06;7359760;19;20014;-56
2023/08/12 08:04:03;;;;;;;0.10;0.10;;;;;;;20.83;61.55;99868.78;7351804;19;20048;-57
2023/08/12 08:06:31;;;;;;;0.10;0.10;;;;;;;20.90;61.05;99865.53;7355754;19;20014;-57
2023/08/12 08:08:57;;;;;;;0.00;0.00;;;;;;;20.97;60.86;99872.03;7353951;19;20051;-55
2023/08/12 08:11:24;;;;;;;0.10;0.10;;;;;;;21.08;61.60;99873.00;7353769;19;20030;-57
2023/08/12 08:13:49;;;;;;;0.05;0.05;;;;;;;21.10;60.67;99877.25;7352744;19;20017;-57
2023/08/12 08:16:15;;;;;;;0.10;0.10;;;;;;;21.15;59.91;99874.22;7359779;19;20033;-57
2023/08/12 08:18:40;;;;;;;0.10;0.10;;;;;;;21.16;60.00;99859.97;7353695;19;20037;-56
2023/08/12 08:21:05;;;;;;;0.00;0.00;;;;;;;21.21;59.68;99889.66;7354178;19;20458;-57
2023/08/12 08:23:31;;;;;;;0.10;0.10;;;;;;;21.24;59.64;99874.34;7352370;19;20014;-57
2023/08/12 08:25:56;;;;;;;0.00;0.00;;;;;;;21.31;59.07;99871.22;7359760;19;20018;-56
2023/08/12 08:28:22;;;;;;;0.10;0.10;;;;;;;21.31;58.41;99872.06;7356864;19;21115;-56
2023/08/12 08:30:47;;;;;;;0.10;0.10;;;;;;;21.33;58.49;99878.06;7357937;19;20018;-58
2023/08/12 08:33:13;;;;;;;0.00;0.00;;;;;;;21.32;58.66;99876.38;7355660;19;20482;-57
2023/08/12 08:35:38;;;;;;;0.10;0.10;;;;;;;21.31;58.79;99872.06;7357418;19;20011;-56
2023/08/12 08:38:04;;;;;;;0.10;0.10;;;;;;;21.28;59.05;99864.28;7356896;19;20470;-58
2023/08/12 08:40:29;;;;;;;0.10;0.10;;;;;;;21.30;59.05;99874.81;7356798;19;20415;-58
2023/08/12 08:43:01;;;;;;;0.08;0.08;;;;;;;21.34;58.89;99879.78;7356285;19;20018;-57
2023/08/12 08:45:30;;;;;;;0.00;0.00;;;;;;;21.38;58.62;99886.50;7357259;19;20006;-57
2023/08/12 08:47:56;;;;;;;0.00;0.00;;;;;;;21.35;58.72;99875.31;7358033;19;20033;-56
2023/08/12 08:50:22;;;;;;;0.05;0.05;;;;;;;21.38;58.47;99869.72;7355828;19;20010;-56
2023/08/12 08:52:48;;;;;;;0.00;0.00;;;;;;;21.31;58.36;99866.75;7330292;19;20014;-60
2023/08/12 08:55:14;;;;;;;0.00;0.00;;;;;;;21.41;57.66;99888.09;7355899;19;20455;-58
2023/08/12 08:57:43;;;;;;;0.10;0.10;;;;;;;21.41;57.64;99886.28;7357667;19;20086;-57
2023/08/12 09:00:09;;;;;;;0.10;0.10;;;;;;;21.38;57.53;99891.81;7355807;19;20035;-56
2023/08/12 09:02:35;;;;;;;0.10;0.10;;;;;;;21.37;57.52;99879.50;7353085;19;20074;-57
2023/08/12 09:05:02;;;;;;;0.00;0.00;;;;;;;21.41;58.16;99891.59;7353087;19;20018;-57
2023/08/12 09:07:29;;;;;;;0.03;0.03;;;;;;;21.37;58.60;99860.94;7355330;19;20037;-56
2023/08/12 09:09:56;;;;;;;;;;;;;;;21.70;58.42;99885.72;7358286;19;20945;-56
2023/08/12 09:12:22;;;;;;;0.00;0.00;;;;;;;21.78;57.23;99883.25;7357708;19;19926;-57
2023/08/12 09:14:48;;;;;;;0.10;0.10;;;;;;;21.93;56.52;99887.31;7354149;19;20103;-58
2023/08/12 09:17:14;;;;;;;0.00;0.00;;;;;;;21.96;55.74;99881.75;7348547;19;20027;-57
2023/08/12 09:19:40;;;;;;;0.00;0.00;;;;;;;22.10;56.16;99893.03;7346421;19;20042;-57
2023/08/12 09:22:08;;;;;;;0.00;0.00;;;;;;;22.16;55.73;99895.25;7352087;19;20376;-57
2023/08/12 09:24:34;;;;;;;0.00;0.00;;;;;;;22.19;55.71;99892.31;7346187;19;20155;-57
2023/08/12 09:27:00;;;;;;;0.05;0.05;;;;;;;22.20;55.22;99896.63;7354371;19;20030;-56
2023/08/12 09:29:34;;;;;;;0.10;0.10;;;;;;;22.26;55.51;99925.41;7352465;19;20010;-55
2023/08/12 09:32:22;;;;;;;0.00;0.00;;;;;;;22.28;55.35;99896.84;7352278;19;20034;-56
2023/08/12 09:34:55;;;;;;;0.00;0.00;;;;;;;22.27;54.81;99905.81;7352731;19;20010;-56
2023/08/12 09:37:24;;;;;;;0.10;0.10;;;;;;;22.22;54.43;99902.69;7347137;19;20014;-56
2023/08/12 09:39:51;;;;;;;0.10;0.10;;;;;;;22.21;54.37;99906.34;7349963;19;20686;-57
2023/08/12 09:42:17;;;;;;;0.10;0.10;;;;;;;22.20;54.09;99912.59;7353220;19;20760;-56
2023/08/12 09:44:43;;;;;;;0.00;0.00;;;;;;;22.18;54.82;99901.25;7355871;19;20535;-57
2023/08/12 09:47:09;;;;;;;0.00;0.00;;;;;;;22.18;55.24;99911.91;7355173;19;20044;-55
2023/08/12 09:49:35;;;;;;;0.10;0.10;;;;;;;22.19;55.25;99877.19;7352551;19;20025;-58
2023/08/12 09:52:04;;;;;;;0.10;0.10;;;;;;;22.39;55.55;99904.75;7349296;19;20324;-56
2023/08/12 09:54:34;;;;;;;0.10;0.10;;;;;;;22.70;55.58;99918.13;7354992;19;20803;-58
2023/08/12 09:57:01;;;;;;;0.00;0.00;;;;;;;22.93;54.12;99924.16;7350015;19;20014;-57
2023/08/12 09:59:32;;;;;;;0.10;0.10;;;;;;;23.10;54.04;99904.88;7354537;19;20947;-55
2023/08/12 10:01:58;;;;;;;0.10;0.10;;;;;;;23.24;52.55;99917.00;7346511;19;20020;-56
2023/08/12 10:04:28;;;;;;;0.10;0.10;;;;;;;23.28;52.25;99926.41;7353910;19;20014;-57
2023/08/12 10:06:55;;;;;;;0.10;0.10;;;;;;;23.25;52.25;99929.34;7354453;19;20014;-55
2023/08/12 10:09:21;;;;;;;0.00;0.00;;;;;;;23.22;53.70;99929.63;7351950;19;20032;-57
2023/08/12 10:11:47;;;;;;;0.00;0.00;;;;;;;23.15;52.80;99933.78;7354352;19;20006;-57
2023/08/12 10:14:13;;;;;;;0.00;0.00;;;;;;;22.97;53.06;99921.09;7344741;19;21170;-57
2023/08/12 10:16:45;;;;;;;0.10;0.10;;;;;;;23.00;53.28;99931.47;7354627;19;20455;-55
2023/08/12 10:19:11;;;;;;;0.10;0.10;;;;;;;22.96;53.72;99932.75;7348686;19;20014;-57
2023/08/12 10:21:38;;;;;;;0.10;0.10;;;;;;;22.89;52.36;99902.28;7353333;19;20069;-57
2023/08/12 10:24:05;;;;;;;0.08;0.08;;;;;;;22.99;52.93;99908.50;7352042;19;20014;-57
2023/08/12 10:26:32;;;;;;;0.00;0.00;;;;;;;23.18;52.96;99917.56;7349972;19;20852;-57
2023/08/12 10:28:59;;;;;;;0.10;0.10;;;;;;;23.33;52.78;99923.34;7350083;19;20003;-57
2023/08/12 10:31:28;;;;;;;0.00;0.00;;;;;;;23.43;52.49;99916.22;7348516;19;20014;-55
2023/08/12 10:33:53;;;;;;;0.05;0.05;;;;;;;23.60;52.53;99933.38;7352456;19;20486;-56
2023/08/12 10:36:20;;;;;;;0.10;0.10;;;;;;;23.68;51.68;99925.56;7353151;19;20021;-56
2023/08/12 10:38:46;;;;;;;0.00;0.00;;;;;;;23.77;50.56;99938.06;7349903;19;20014;-57
2023/08/12 10:41:19;;;;;;;0.10;0.10;;;;;;;23.82;51.55;99930.47;7352750;19;20027;-58
2023/08/12 10:43:50;;;;;;;0.08;0.08;;;;;;;23.85;51.46;99932.88;7344309;19;20972;-57
2023/08/12 10:46:28;;;;;;;0.10;0.10;;;;;;;23.79;51.20;99917.44;7346678;19;20014;-57
2023/08/12 10:49:11;;;;;;;0.08;0.08;;;;;;;23.90;51.40;99937.81;7351685;19;20030;-56
2023/08/12 10:51:45;;;;;;;0.00;0.00;;;;;;;23.88;50.14;99927.28;7351899;19;21214;-56
2023/08/12 10:54:30;;;;;;;0.10;0.10;;;;;;;23.97;51.20;99928.25;7344569;19;20014;-57
2023/08/12 10:57:08;;;;;;;0.00;0.00;;;;;;;23.93;50.50;99942.88;7348395;19;20028;-56
2023/08/12 10:59:46;;;;;;;0.00;0.00;;;;;;;23.91;50.21;99948.31;7348267;19;20024;-58
2023/08/12 11:02:18;;;;;;;0.10;0.10;;;;;;;23.84;49.84;99947.19;7342369;19;20035;-56
2023/08/12 11:04:47;;;;;;;0.10;0.10;;;;;;;23.71;49.58;99946.59;7353512;19;20492;-57
2023/08/12 11:07:18;;;;;;;0.10;0.10;;;;;;;23.67;49.82;99951.41;7347002;19;20006;-55
2023/08/12 11:09:45;;;;;;;0.10;0.10;;;;;;;23.59;49.85;99958.34;7350386;19;20044;-57
2023/08/12 11:12:11;;;;;;;0.10;0.10;;;;;;;23.58;50.50;99951.34;7349004;19;20011;-55
2023/08/12 11:14:53;;;;;;;0.00;0.00;;;;;;;23.64;51.43;99950.81;7350235;19;20007;-58
2023/08/12 11:17:18;;;;;;;0.08;0.08;;;;;;;23.72;50.89;99953.63;7348996;19;20478;-56
2023/08/12 11:19:43;;;;;;;0.10;0.10;;;;;;;23.83;49.95;99953.53;7325364;19;20037;-58
2023/08/12 11:22:12;;;;;;;0.00;0.00;;;;;;;23.95;49.46;99951.56;7346774;19;20026;-57
2023/08/12 11:24:41;;;;;;;0.00;0.00;;;;;;;24.00;49.22;99955.50;7345335;19;20010;-56
2023/08/12 11:27:13;;;;;;;0.10;0.10;;;;;;;24.06;49.83;99956.75;7342195;19;20036;-56
2023/08/12 11:29:38;;;;;;;0.10;0.10;;;;;;;24.02;49.24;99953.53;7350452;19;20019;-55